Time;durP1;ratioP1;P1;durP2;ratioP2;P2;SDS_P1;SDS_P2;PMS_P1;PMS_P2;Temp;Humidity;BMP_temperature;BMP_pressure;BME280_temperature;BME280_humidity;BME280_pressure;Samples;Min_cycle;Max_cycle;Signal;HPM_P1;HPM_P2
2022/05/01 00:00:46;;;;;;;6.05;4.03;;;;;;;;;;5013622;28;20076;-37
2022/05/01 00:05:59;;;;;;;7.30;4.40;;;;;;;;;;5013598;28;20041;-37
2022/05/01 00:08:25;;;;;;;7.45;4.35;;;;;;;;;;5013711;28;20029;-38
2022/05/01 00:10:51;;;;;;;5.57;3.90;;;;;;;;;;5014026;28;20104;-37
2022/05/01 00:13:16;;;;;;;6.70;4.05;;;;;;;;;;5013227;28;20058;-38
2022/05/01 00:15:45;;;;;;;5.43;3.75;;;;;;;;;;5013592;28;20030;-38
2022/05/01 00:18:10;;;;;;;4.43;3.65;;;;;;;;;;5013409;28;20065;-37
2022/05/01 00:20:35;;;;;;;11.68;4.13;;;;;;;;;;5012004;28;20064;-37
2022/05/01 00:23:02;;;;;;;10.15;5.03;;;;;;;;;;5013729;28;20030;-37
2022/05/01 00:25:28;;;;;;;7.22;4.07;;;;;;;;;;5013271;28;20029;-37
2022/05/01 00:27:55;;;;;;;11.60;3.95;;;;;;;;;;5013153;28;20029;-37
2022/05/01 00:30:20;;;;;;;5.35;3.92;;;;;;;;;;5011726;28;20029;-40
2022/05/01 00:38:14;;;;;;;8.32;3.75;;;;;;;;;;5012983;28;20038;-38
2022/05/01 00:40:39;;;;;;;4.97;3.85;;;;;;;;;;5012876;28;20014;-37
2022/05/01 00:43:05;;;;;;;7.93;3.97;;;;;;;;;;5012888;28;20037;-37
2022/05/01 00:45:31;;;;;;;7.88;3.95;;;;;;;;;;5012608;28;20567;-38
2022/05/01 00:47:57;;;;;;;7.78;4.32;;;;;;;;;;5012202;28;20179;-37
2022/05/01 00:50:23;;;;;;;6.05;4.47;;;;;;;;;;5012395;28;20105;-37
2022/05/01 00:52:49;;;;;;;5.07;4.55;;;;;;;;;;5012672;28;20045;-37
2022/05/01 00:55:15;;;;;;;13.95;3.97;;;;;;;;;;5012676;28;20059;-37
2022/05/01 00:57:40;;;;;;;5.95;3.63;;;;;;;;;;5012747;28;20029;-37
2022/05/01 01:00:06;;;;;;;5.50;3.72;;;;;;;;;;5012640;28;20022;-37
2022/05/01 01:02:31;;;;;;;7.10;4.63;;;;;;;;;;5012448;28;20022;-41
2022/05/01 01:04:57;;;;;;;5.95;3.47;;;;;;;;;;5012469;28;20018;-37
2022/05/01 01:07:25;;;;;;;5.32;3.53;;;;;;;;;;5012367;28;20038;-37
2022/05/01 01:09:50;;;;;;;9.45;4.03;;;;;;;;;;5012668;28;20021;-37
2022/05/01 01:15:08;;;;;;;7.72;3.72;;;;;;;;;;5012573;28;20539;-37
2022/05/01 01:17:33;;;;;;;8.27;4.85;;;;;;;;;;5012221;28;20515;-37
2022/05/01 01:19:59;;;;;;;9.13;4.32;;;;;;;;;;5012231;28;20030;-38
2022/05/01 01:22:24;;;;;;;7.32;3.70;;;;;;;;;;5012481;28;20468;-38
2022/05/01 01:24:49;;;;;;;5.78;3.75;;;;;;;;;;5012505;28;20052;-37
2022/05/01 01:27:15;;;;;;;13.32;4.28;;;;;;;;;;5012058;28;20029;-38
2022/05/01 01:32:26;;;;;;;8.88;4.30;;;;;;;;;;5012047;28;20045;-37
2022/05/01 01:34:51;;;;;;;12.25;4.45;;;;;;;;;;5012217;28;20076;-37
2022/05/01 01:37:17;;;;;;;3.70;3.25;;;;;;;;;;5012195;28;20029;-37
2022/05/01 01:39:43;;;;;;;5.95;3.75;;;;;;;;;;5012130;28;20423;-37
2022/05/01 01:42:09;;;;;;;8.48;3.90;;;;;;;;;;5011893;28;20408;-37
2022/05/01 01:44:37;;;;;;;6.55;4.10;;;;;;;;;;5012110;28;20357;-37
2022/05/01 01:47:02;;;;;;;8.00;4.68;;;;;;;;;;5010513;28;20030;-37
2022/05/01 01:49:27;;;;;;;9.10;4.40;;;;;;;;;;5011758;28;20034;-38
2022/05/01 01:51:53;;;;;;;10.23;6.25;;;;;;;;;;5011764;28;20155;-37
2022/05/01 01:54:18;;;;;;;6.20;4.05;;;;;;;;;;5012029;28;20376;-37
2022/05/01 01:56:44;;;;;;;7.85;4.45;;;;;;;;;;5011611;28;20116;-37
2022/05/01 01:59:11;;;;;;;6.50;4.32;;;;;;;;;;5011597;28;20017;-37
2022/05/01 02:01:37;;;;;;;8.68;4.35;;;;;;;;;;5011831;28;20030;-37
2022/05/01 02:04:02;;;;;;;8.57;4.47;;;;;;;;;;5011967;28;20025;-37
2022/05/01 02:06:28;;;;;;;5.40;3.58;;;;;;;;;;5011618;28;20657;-38
2022/05/01 02:08:53;;;;;;;7.47;4.70;;;;;;;;;;5011568;28;20018;-38
2022/05/01 02:11:20;;;;;;;8.60;4.05;;;;;;;;;;5012058;28;20073;-37
2022/05/01 02:13:45;;;;;;;6.90;3.78;;;;;;;;;;5011415;28;20129;-37
2022/05/01 02:16:10;;;;;;;9.38;5.18;;;;;;;;;;5011727;28;20485;-37
2022/05/01 02:18:36;;;;;;;6.82;4.55;;;;;;;;;;5011468;28;20030;-37
2022/05/01 02:23:45;;;;;;;5.18;3.92;;;;;;;;;;5011498;28;20065;-37
2022/05/01 02:26:12;;;;;;;12.05;4.30;;;;;;;;;;5011435;28;20053;-37
2022/05/01 02:28:39;;;;;;;9.70;4.30;;;;;;;;;;5011658;28;20040;-37
2022/05/01 02:31:04;;;;;;;4.88;3.92;;;;;;;;;;5011627;28;20026;-37
2022/05/01 02:33:29;;;;;;;6.45;4.43;;;;;;;;;;5011248;28;20052;-37
2022/05/01 02:35:55;;;;;;;6.72;4.10;;;;;;;;;;5011657;28;20103;-37
2022/05/01 02:38:20;;;;;;;7.15;4.15;;;;;;;;;;5011199;28;20171;-38
2022/05/01 02:40:46;;;;;;;7.78;4.57;;;;;;;;;;5011454;28;20025;-38
2022/05/01 02:43:11;;;;;;;4.20;3.50;;;;;;;;;;5009984;28;20034;-37
2022/05/01 02:45:37;;;;;;;5.55;4.30;;;;;;;;;;5011479;28;20092;-38
2022/05/01 02:48:02;;;;;;;6.88;4.20;;;;;;;;;;5011280;28;20535;-37
2022/05/01 02:50:27;;;;;;;6.07;3.95;;;;;;;;;;5010248;28;20247;-37
2022/05/01 02:52:54;;;;;;;7.30;4.68;;;;;;;;;;5011077;28;20052;-37
2022/05/01 02:55:19;;;;;;;12.70;4.20;;;;;;;;;;5011448;28;20022;-38
2022/05/01 02:57:45;;;;;;;7.63;4.13;;;;;;;;;;5011642;28;20040;-38
2022/05/01 03:00:16;;;;;;;7.55;4.68;;;;;;;;;;5011304;28;20021;-37
2022/05/01 03:02:48;;;;;;;6.78;4.53;;;;;;;;;;5011341;28;20057;-37
2022/05/01 03:05:14;;;;;;;7.18;4.55;;;;;;;;;;5011409;28;20107;-38
2022/05/01 03:07:40;;;;;;;8.93;5.43;;;;;;;;;;5010857;28;20461;-37
2022/05/01 03:10:05;;;;;;;6.05;3.70;;;;;;;;;;5011148;28;20037;-37
2022/05/01 03:12:31;;;;;;;5.75;4.47;;;;;;;;;;5012750;28;20042;-38
2022/05/01 03:14:57;;;;;;;6.93;4.88;;;;;;;;;;5014608;28;20026;-38
2022/05/01 03:17:23;;;;;;;5.90;4.20;;;;;;;;;;5014486;28;20025;-38
2022/05/01 03:22:32;;;;;;;10.40;4.68;;;;;;;;;;5014398;28;20037;-38
2022/05/01 03:24:58;;;;;;;6.45;4.50;;;;;;;;;;5014601;28;20034;-38
2022/05/01 03:27:23;;;;;;;5.38;4.00;;;;;;;;;;5014273;28;20046;-37
2022/05/01 03:30:15;;;;;;;6.82;4.78;;;;;;;;;;5014601;28;20022;-37
2022/05/01 03:32:34;;;;;;;5.82;4.22;;;;;;;;;;5014083;28;20568;-37
2022/05/01 03:35:00;;;;;;;5.63;3.65;;;;;;;;;;5014163;28;20096;-37
2022/05/01 03:37:25;;;;;;;4.80;3.92;;;;;;;;;;5012797;28;20026;-37
2022/05/01 03:39:51;;;;;;;8.52;4.22;;;;;;;;;;5014434;28;20419;-37
2022/05/01 03:42:16;;;;;;;9.65;4.80;;;;;;;;;;5014030;28;20391;-37
2022/05/01 03:44:41;;;;;;;7.40;4.75;;;;;;;;;;5014318;28;20101;-38
2022/05/01 03:47:07;;;;;;;9.13;4.13;;;;;;;;;;5014336;28;20026;-37
2022/05/01 03:49:32;;;;;;;5.32;3.90;;;;;;;;;;5013773;28;20480;-37
2022/05/01 03:51:57;;;;;;;6.72;4.10;;;;;;;;;;5013926;28;20116;-38
2022/05/01 03:54:24;;;;;;;6.35;4.05;;;;;;;;;;5013749;28;20014;-37
2022/05/01 03:56:49;;;;;;;11.80;4.35;;;;;;;;;;5013754;28;20038;-37
2022/05/01 03:59:14;;;;;;;7.20;4.28;;;;;;;;;;5014108;28;20014;-38
2022/05/01 04:01:42;;;;;;;9.88;4.32;;;;;;;;;;5013882;28;20022;-37
2022/05/01 04:04:08;;;;;;;7.65;4.20;;;;;;;;;;5012338;28;20384;-37
2022/05/01 04:06:33;;;;;;;7.50;3.83;;;;;;;;;;5013576;28;20030;-37
2022/05/01 04:09:00;;;;;;;8.85;4.45;;;;;;;;;;5013590;28;20127;-37
2022/05/01 04:11:25;;;;;;;6.65;4.22;;;;;;;;;;5013362;28;20026;-37
2022/05/01 04:13:51;;;;;;;10.32;4.80;;;;;;;;;;5013345;28;20053;-38
2022/05/01 04:16:17;;;;;;;11.48;4.63;;;;;;;;;;5013374;28;20077;-38
2022/05/01 04:18:43;;;;;;;8.85;4.30;;;;;;;;;;5013282;28;20112;-37
2022/05/01 04:21:09;;;;;;;7.13;4.00;;;;;;;;;;5013616;28;20061;-39
2022/05/01 04:23:35;;;;;;;9.23;5.45;;;;;;;;;;5013239;28;20026;-38
2022/05/01 04:26:03;;;;;;;7.88;4.82;;;;;;;;;;5013127;28;20113;-37
2022/05/01 04:28:28;;;;;;;8.63;4.35;;;;;;;;;;5011868;28;20794;-37
2022/05/01 04:30:54;;;;;;;6.43;4.43;;;;;;;;;;5013215;28;20040;-37
2022/05/01 04:33:19;;;;;;;6.35;4.15;;;;;;;;;;5013001;28;20037;-37
2022/05/01 04:35:49;;;;;;;6.50;4.10;;;;;;;;;;5012990;28;20076;-37
2022/05/01 04:38:15;;;;;;;8.73;5.15;;;;;;;;;;5013195;28;20026;-37
2022/05/01 04:40:42;;;;;;;5.93;4.20;;;;;;;;;;5013177;28;20350;-37
2022/05/01 04:43:17;;;;;;;6.80;4.72;;;;;;;;;;4995361;28;20675;-38
2022/05/01 04:45:43;;;;;;;5.10;3.65;;;;;;;;;;5012990;28;20058;-37
2022/05/01 04:48:10;;;;;;;5.18;4.20;;;;;;;;;;5012882;28;20412;-37
2022/05/01 04:50:35;;;;;;;7.53;4.07;;;;;;;;;;5012740;28;20079;-37
2022/05/01 04:53:02;;;;;;;6.43;3.92;;;;;;;;;;5012916;28;20038;-37
2022/05/01 04:55:28;;;;;;;7.85;4.30;;;;;;;;;;5012873;28;20516;-37
2022/05/01 04:57:53;;;;;;;4.32;3.30;;;;;;;;;;5012936;28;20033;-37
2022/05/01 05:00:19;;;;;;;7.53;3.83;;;;;;;;;;5012906;28;20372;-37
2022/05/01 05:02:46;;;;;;;7.13;4.22;;;;;;;;;;5012498;28;20365;-37
2022/05/01 05:05:12;;;;;;;5.93;3.85;;;;;;;;;;5012527;28;20033;-37
2022/05/01 05:07:38;;;;;;;4.78;4.10;;;;;;;;;;5012400;28;20026;-38
2022/05/01 05:10:04;;;;;;;5.75;4.78;;;;;;;;;;5012766;28;20038;-37
2022/05/01 05:12:29;;;;;;;7.13;3.85;;;;;;;;;;5011957;28;20058;-37
2022/05/01 05:14:58;;;;;;;6.70;4.65;;;;;;;;;;5012299;28;20038;-37
2022/05/01 05:17:24;;;;;;;7.13;4.50;;;;;;;;;;5012277;28;20036;-38
2022/05/01 05:19:50;;;;;;;7.03;4.72;;;;;;;;;;5012305;28;20018;-37
2022/05/01 05:22:15;;;;;;;6.55;4.85;;;;;;;;;;5012258;28;20025;-37
2022/05/01 05:24:41;;;;;;;6.65;3.88;;;;;;;;;;5012224;28;20539;-38
2022/05/01 05:27:07;;;;;;;10.13;5.65;;;;;;;;;;5012410;28;20044;-38
2022/05/01 05:29:32;;;;;;;14.27;4.68;;;;;;;;;;5012007;28;20380;-37
2022/05/01 05:31:59;;;;;;;6.97;4.40;;;;;;;;;;5012175;28;20026;-37
2022/05/01 05:34:25;;;;;;;7.38;4.15;;;;;;;;;;5011564;28;20072;-37
2022/05/01 05:36:51;;;;;;;5.25;3.63;;;;;;;;;;5011980;28;20053;-37
2022/05/01 05:39:16;;;;;;;7.05;4.00;;;;;;;;;;5011977;28;20025;-37
2022/05/01 05:41:42;;;;;;;6.47;4.65;;;;;;;;;;5011967;28;20017;-37
2022/05/01 05:44:08;;;;;;;8.13;3.72;;;;;;;;;;5011909;28;20029;-37
2022/05/01 05:46:34;;;;;;;6.75;3.88;;;;;;;;;;5011764;28;20018;-37
2022/05/01 05:49:00;;;;;;;4.88;3.45;;;;;;;;;;5011929;28;20392;-37
2022/05/01 05:51:26;;;;;;;5.22;3.67;;;;;;;;;;5011647;28;20018;-37
2022/05/01 05:53:52;;;;;;;7.22;4.50;;;;;;;;;;5011883;28;20099;-37
2022/05/01 05:56:18;;;;;;;6.57;4.43;;;;;;;;;;5012018;28;20072;-37
2022/05/01 05:58:44;;;;;;;6.25;4.32;;;;;;;;;;5011603;28;20053;-37
2022/05/01 06:01:12;;;;;;;7.28;4.00;;;;;;;;;;5012055;28;20041;-37
2022/05/01 06:03:41;;;;;;;10.88;4.10;;;;;;;;;;5011556;28;20079;-37
2022/05/01 06:06:07;;;;;;;7.53;4.32;;;;;;;;;;5011684;28;20021;-37
2022/05/01 06:08:33;;;;;;;5.90;4.10;;;;;;;;;;5011605;28;20057;-37
2022/05/01 06:10:58;;;;;;;6.15;4.50;;;;;;;;;;5011583;28;20052;-38
2022/05/01 06:13:28;;;;;;;4.93;3.80;;;;;;;;;;5011267;28;20046;-37
2022/05/01 06:15:54;;;;;;;6.38;4.28;;;;;;;;;;5011644;28;20030;-37
2022/05/01 06:18:20;;;;;;;12.00;4.50;;;;;;;;;;5011593;28;20356;-37
2022/05/01 06:20:47;;;;;;;7.80;4.47;;;;;;;;;;5011451;28;20018;-37
2022/05/01 06:23:14;;;;;;;5.13;3.60;;;;;;;;;;5010317;28;20357;-38
2022/05/01 06:25:43;;;;;;;4.63;3.08;;;;;;;;;;5011407;28;20358;-37
2022/05/01 06:28:10;;;;;;;5.45;3.20;;;;;;;;;;5011215;28;20512;-37
2022/05/01 06:30:39;;;;;;;9.57;3.55;;;;;;;;;;4994003;28;20018;-37
2022/05/01 06:33:08;;;;;;;11.50;3.22;;;;;;;;;;5011142;28;20128;-37
2022/05/01 06:35:33;;;;;;;9.30;3.75;;;;;;;;;;5011598;28;20416;-38
2022/05/01 06:37:59;;;;;;;4.65;3.25;;;;;;;;;;5011425;28;20527;-37
2022/05/01 06:40:25;;;;;;;4.28;3.53;;;;;;;;;;5011188;28;20026;-37
2022/05/01 06:42:54;;;;;;;5.88;3.05;;;;;;;;;;5026856;28;20047;-37
2022/05/01 06:45:19;;;;;;;5.95;3.72;;;;;;;;;;5011180;28;20480;-37
2022/05/01 06:47:45;;;;;;;4.70;3.35;;;;;;;;;;5013739;28;20040;-37
2022/05/01 06:50:11;;;;;;;5.03;3.83;;;;;;;;;;5015082;28;20018;-38
2022/05/01 06:52:37;;;;;;;3.78;2.70;;;;;;;;;;5015100;28;20038;-38
2022/05/01 06:55:03;;;;;;;7.50;3.10;;;;;;;;;;5015193;28;20029;-38
2022/05/01 06:57:29;;;;;;;8.07;2.97;;;;;;;;;;5014782;28;20057;-37
2022/05/01 06:59:55;;;;;;;7.00;3.33;;;;;;;;;;5014919;28;20032;-37
2022/05/01 07:02:20;;;;;;;3.58;2.97;;;;;;;;;;5015082;28;20083;-37
2022/05/01 07:04:47;;;;;;;3.95;2.53;;;;;;;;;;5014956;28;20439;-37
2022/05/01 07:07:12;;;;;;;4.65;3.00;;;;;;;;;;5014721;28;20568;-42
2022/05/01 07:09:37;;;;;;;4.50;3.22;;;;;;;;;;5014656;28;20017;-37
2022/05/01 07:12:03;;;;;;;4.18;3.08;;;;;;;;;;5014443;28;20096;-38
2022/05/01 07:14:32;;;;;;;4.90;3.08;;;;;;;;;;5014834;28;20069;-37
2022/05/01 07:16:57;;;;;;;4.88;3.22;;;;;;;;;;5014476;28;20105;-38
2022/05/01 07:19:22;;;;;;;7.38;3.67;;;;;;;;;;5014547;28;20089;-41
2022/05/01 07:21:48;;;;;;;4.80;2.85;;;;;;;;;;5014458;28;20026;-37
2022/05/01 07:24:13;;;;;;;4.93;3.05;;;;;;;;;;5014511;28;20388;-37
2022/05/01 07:26:39;;;;;;;3.05;2.55;;;;;;;;;;5014573;28;20030;-38
2022/05/01 07:29:04;;;;;;;6.13;3.78;;;;;;;;;;5014298;28;20014;-37
2022/05/01 07:31:30;;;;;;;7.90;2.95;;;;;;;;;;5014153;28;20034;-40
2022/05/01 07:33:56;;;;;;;4.63;3.58;;;;;;;;;;5014649;28;20034;-37
2022/05/01 07:36:21;;;;;;;3.58;2.92;;;;;;;;;;5014374;28;20041;-37
2022/05/01 07:38:48;;;;;;;4.70;2.38;;;;;;;;;;5014225;28;20024;-37
2022/05/01 07:41:16;;;;;;;4.07;2.58;;;;;;;;;;5014077;28;20030;-37
2022/05/01 07:43:45;;;;;;;4.00;2.40;;;;;;;;;;5014212;28;20022;-37
2022/05/01 07:46:12;;;;;;;2.40;2.20;;;;;;;;;;5013997;28;20029;-38
2022/05/01 07:48:38;;;;;;;5.03;3.30;;;;;;;;;;5013895;28;20032;-37
2022/05/01 07:51:04;;;;;;;8.48;3.03;;;;;;;;;;5013901;28;20492;-38
2022/05/01 07:53:32;;;;;;;8.82;2.65;;;;;;;;;;5013807;28;20022;-38
2022/05/01 07:55:58;;;;;;;3.90;2.67;;;;;;;;;;5012566;28;20073;-37
2022/05/01 07:58:27;;;;;;;5.82;2.97;;;;;;;;;;5013440;28;20033;-37
2022/05/01 08:00:54;;;;;;;3.53;2.90;;;;;;;;;;5013795;28;20084;-37
2022/05/01 08:06:04;;;;;;;4.43;2.75;;;;;;;;;;5013628;28;20181;-38
2022/05/01 08:08:33;;;;;;;3.83;2.85;;;;;;;;;;5013578;28;20101;-37
2022/05/01 08:11:03;;;;;;;4.43;3.00;;;;;;;;;;5013841;28;20416;-37
2022/05/01 08:13:29;;;;;;;3.10;2.17;;;;;;;;;;5013136;28;20144;-37
2022/05/01 08:15:55;;;;;;;2.65;2.05;;;;;;;;;;5013431;28;20102;-37
2022/05/01 08:21:05;;;;;;;4.03;2.85;;;;;;;;;;5013658;28;20030;-37
2022/05/01 08:23:34;;;;;;;4.47;2.75;;;;;;;;;;5013312;28;20369;-37
2022/05/01 08:26:03;;;;;;;3.47;2.60;;;;;;;;;;5011896;28;20038;-37
2022/05/01 08:28:32;;;;;;;4.10;2.80;;;;;;;;;;5013261;28;20504;-37
2022/05/01 08:30:58;;;;;;;4.35;2.53;;;;;;;;;;5013207;28;20068;-38
2022/05/01 08:33:23;;;;;;;5.15;2.60;;;;;;;;;;5013282;28;20061;-38
2022/05/01 08:35:52;;;;;;;5.53;2.60;;;;;;;;;;5013014;28;20045;-37
2022/05/01 08:38:18;;;;;;;5.15;2.63;;;;;;;;;;5013013;28;20022;-37
2022/05/01 08:40:45;;;;;;;8.65;2.78;;;;;;;;;;5013191;28;20018;-37
2022/05/01 08:43:14;;;;;;;5.38;2.65;;;;;;;;;;5013108;28;20038;-37
2022/05/01 08:45:59;;;;;;;4.47;3.17;;;;;;;;;;5012876;28;20034;-38
2022/05/01 08:48:29;;;;;;;5.97;2.25;;;;;;;;;;5012761;28;20037;-38
2022/05/01 08:50:55;;;;;;;7.18;3.05;;;;;;;;;;5012919;28;20030;-37
2022/05/01 08:53:22;;;;;;;3.65;3.00;;;;;;;;;;5013069;28;20532;-37
2022/05/01 08:55:48;;;;;;;5.57;3.28;;;;;;;;;;5012620;28;20025;-38
2022/05/01 08:58:14;;;;;;;3.92;2.95;;;;;;;;;;5012788;28;20542;-37
2022/05/01 09:00:39;;;;;;;4.20;2.80;;;;;;;;;;5012566;28;20037;-37
2022/05/01 09:03:06;;;;;;;6.55;2.08;;;;;;;;;;5012581;28;20121;-37
2022/05/01 09:05:32;;;;;;;5.03;3.80;;;;;;;;;;5012576;28;20022;-37
2022/05/01 09:07:58;;;;;;;4.47;3.00;;;;;;;;;;5012525;28;20026;-37
2022/05/01 09:10:27;;;;;;;4.47;2.63;;;;;;;;;;5011756;28;20030;-37
2022/05/01 09:12:53;;;;;;;4.57;3.35;;;;;;;;;;5012040;28;20061;-38
2022/05/01 09:15:31;;;;;;;5.25;3.33;;;;;;;;;;5012453;28;20022;-39
2022/05/01 09:18:04;;;;;;;4.97;3.28;;;;;;;;;;5012298;28;20480;-37
2022/05/01 09:20:30;;;;;;;5.47;3.20;;;;;;;;;;5012303;28;20037;-37
2022/05/01 09:22:57;;;;;;;5.28;3.85;;;;;;;;;;5012248;28;20068;-37
2022/05/01 09:25:24;;;;;;;5.07;3.65;;;;;;;;;;5012173;28;20037;-37
2022/05/01 09:27:56;;;;;;;2.97;1.83;;;;;;;;;;5012173;28;20057;-37
2022/05/01 09:30:30;;;;;;;5.40;3.58;;;;;;;;;;5012406;28;20045;-37
2022/05/01 09:32:57;;;;;;;6.05;4.22;;;;;;;;;;5012134;28;20042;-38
2022/05/01 09:35:22;;;;;;;5.85;4.28;;;;;;;;;;5027254;28;20029;-37
2022/05/01 09:37:48;;;;;;;7.45;4.38;;;;;;;;;;5011980;28;20037;-38
2022/05/01 09:40:29;;;;;;;7.53;4.68;;;;;;;;;;5011956;28;20020;-38
2022/05/01 09:42:54;;;;;;;5.85;4.13;;;;;;;;;;5011088;28;20042;-37
2022/05/01 09:45:28;;;;;;;5.70;4.20;;;;;;;;;;5011835;28;20070;-37
2022/05/01 09:47:54;;;;;;;7.03;4.80;;;;;;;;;;5012001;28;20032;-37
2022/05/01 09:50:37;;;;;;;9.90;5.15;;;;;;;;;;5011886;28;20014;-37
2022/05/01 09:53:03;;;;;;;11.73;5.20;;;;;;;;;;5026986;28;20132;-38
2022/05/01 09:55:29;;;;;;;7.63;4.95;;;;;;;;;;5012036;28;20692;-37
2022/05/01 09:58:01;;;;;;;7.93;5.40;;;;;;;;;;5011837;28;20493;-37
2022/05/01 10:00:35;;;;;;;6.97;4.00;;;;;;;;;;5011772;28;20030;-37
2022/05/01 10:03:18;;;;;;;13.00;3.88;;;;;;;;;;5012008;28;20045;-38
2022/05/01 10:05:44;;;;;;;7.95;4.78;;;;;;;;;;5011519;28;20484;-38
2022/05/01 10:08:10;;;;;;;11.13;5.07;;;;;;;;;;5011669;28;20056;-38
2022/05/01 10:10:36;;;;;;;11.10;5.55;;;;;;;;;;5011590;28;20026;-38
2022/05/01 10:13:02;;;;;;;7.43;5.55;;;;;;;;;;5011380;28;20049;-39
2022/05/01 10:15:27;;;;;;;7.22;4.57;;;;;;;;;;5011605;28;20627;-38
2022/05/01 10:17:53;;;;;;;10.13;4.80;;;;;;;;;;5011497;28;20136;-38
2022/05/01 10:20:20;;;;;;;6.65;4.38;;;;;;;;;;5011864;28;20034;-38
2022/05/01 10:22:48;;;;;;;9.55;5.20;;;;;;;;;;5015583;28;20484;-37
2022/05/01 10:25:16;;;;;;;7.35;4.65;;;;;;;;;;5015486;28;20037;-38
2022/05/01 10:28:03;;;;;;;8.32;5.78;;;;;;;;;;5015403;28;20021;-38
2022/05/01 10:33:17;;;;;;;8.45;5.03;;;;;;;;;;5015578;28;20042;-38
2022/05/01 10:35:54;;;;;;;6.25;5.10;;;;;;;;;;5015120;28;20121;-38
2022/05/01 10:38:28;;;;;;;7.88;5.32;;;;;;;;;;5015245;28;20045;-38
2022/05/01 10:40:58;;;;;;;11.32;5.30;;;;;;;;;;5015500;28;20030;-38
2022/05/01 10:43:26;;;;;;;10.15;5.10;;;;;;;;;;5014941;28;20108;-38
2022/05/01 10:45:53;;;;;;;8.85;5.60;;;;;;;;;;5014884;28;20109;-38
2022/05/01 10:48:28;;;;;;;7.55;5.40;;;;;;;;;;5015379;28;20045;-38
2022/05/01 10:50:54;;;;;;;10.93;5.70;;;;;;;;;;5014968;28;20038;-38
2022/05/01 10:53:20;;;;;;;9.35;5.90;;;;;;;;;;5015025;28;20041;-38
2022/05/01 10:55:48;;;;;;;8.38;5.72;;;;;;;;;;5030085;28;20030;-38
2022/05/01 10:58:20;;;;;;;9.13;5.75;;;;;;;;;;5014969;28;20057;-38
2022/05/01 11:00:46;;;;;;;14.13;5.82;;;;;;;;;;5014924;28;20034;-38
2022/05/01 11:03:26;;;;;;;7.68;6.25;;;;;;;;;;5015108;28;20099;-38
2022/05/01 11:05:55;;;;;;;12.85;6.45;;;;;;;;;;5014771;28;20059;-37
2022/05/01 11:08:24;;;;;;;12.25;7.57;;;;;;;;;;5015028;28;20025;-38
2022/05/01 11:10:51;;;;;;;12.05;6.53;;;;;;;;;;5014609;28;20399;-38
2022/05/01 11:13:18;;;;;;;10.27;6.82;;;;;;;;;;5014518;28;20048;-37
2022/05/01 11:15:44;;;;;;;13.38;6.15;;;;;;;;;;5014580;28;20030;-37
2022/05/01 11:18:12;;;;;;;8.05;6.60;;;;;;;;;;5014582;28;20520;-38
2022/05/01 11:20:38;;;;;;;10.77;7.20;;;;;;;;;;5014543;28;20534;-38
2022/05/01 11:23:22;;;;;;;12.05;7.45;;;;;;;;;;5013186;28;20030;-37
2022/05/01 11:25:47;;;;;;;12.57;7.78;;;;;;;;;;5014358;28;20036;-37
2022/05/01 11:28:32;;;;;;;14.00;8.50;;;;;;;;;;5014384;28;20026;-37
2022/05/01 11:30:58;;;;;;;10.95;7.75;;;;;;;;;;5014306;28;20032;-38
2022/05/01 11:33:23;;;;;;;14.18;9.23;;;;;;;;;;5013430;28;20117;-37
2022/05/01 11:35:53;;;;;;;12.60;8.40;;;;;;;;;;5014174;28;20064;-37
2022/05/01 11:38:20;;;;;;;13.48;8.48;;;;;;;;;;5014251;28;20465;-37
2022/05/01 11:40:52;;;;;;;10.48;7.78;;;;;;;;;;5014321;28;20029;-37
2022/05/01 11:43:19;;;;;;;12.95;8.40;;;;;;;;;;5014391;28;20449;-37
2022/05/01 11:45:47;;;;;;;11.93;8.40;;;;;;;;;;5013923;28;20105;-37
2022/05/01 11:48:19;;;;;;;10.93;8.68;;;;;;;;;;5014057;28;20025;-37
2022/05/01 11:50:46;;;;;;;10.25;7.05;;;;;;;;;;5013981;28;20041;-38
2022/05/01 11:53:15;;;;;;;11.48;7.88;;;;;;;;;;5014133;28;20038;-37
2022/05/01 12:04:00;;;;;;;7.32;5.90;;;;;;;;;;5013878;28;20096;-37
2022/05/01 12:06:25;;;;;;;9.15;6.55;;;;;;;;;;5013675;28;20076;-37
2022/05/01 12:08:52;;;;;;;20.20;8.82;;;;;;;;;;5013514;28;20042;-37
2022/05/01 12:11:27;;;;;;;7.60;5.70;;;;;;;;;;5013629;28;20018;-37
2022/05/01 12:14:03;;;;;;;6.88;5.30;;;;;;;;;;5013159;28;20053;-37
2022/05/01 14:26:14;;;;;;;4.43;2.60;;;;;;;;;;4992424;28;20053;-37
2022/05/01 14:28:40;;;;;;;5.57;3.05;;;;;;;;;;5011745;28;20534;-37
2022/05/01 14:31:07;;;;;;;5.68;3.28;;;;;;;;;;5011746;28;20465;-37
2022/05/01 14:33:44;;;;;;;3.42;2.30;;;;;;;;;;5011537;28;20033;-37
2022/05/01 14:36:15;;;;;;;3.67;2.47;;;;;;;;;;5011629;28;20052;-37
2022/05/01 14:38:59;;;;;;;2.60;1.88;;;;;;;;;;5011430;28;20038;-37
2022/05/01 14:41:33;;;;;;;4.25;2.20;;;;;;;;;;5011485;28;20025;-37
2022/05/01 14:44:02;;;;;;;2.55;2.10;;;;;;;;;;5010004;28;20117;-37
2022/05/01 14:46:27;;;;;;;3.42;2.25;;;;;;;;;;5011362;28;20029;-37
2022/05/01 14:48:57;;;;;;;2.60;1.90;;;;;;;;;;5011627;28;20376;-37
2022/05/01 14:51:24;;;;;;;5.97;2.08;;;;;;;;;;5010321;28;20041;-37
2022/05/01 14:53:50;;;;;;;2.38;1.90;;;;;;;;;;5011137;28;20044;-37
2022/05/01 14:56:17;;;;;;;3.65;2.25;;;;;;;;;;5011353;28;20030;-37
2022/05/01 15:07:13;;;;;;;6.60;2.47;;;;;;;;;;5011347;28;20034;-37
2022/05/01 15:09:38;;;;;;;2.88;2.10;;;;;;;;;;5014730;28;20022;-37
2022/05/01 15:12:04;;;;;;;2.63;2.00;;;;;;;;;;5014605;28;20116;-37
2022/05/01 15:14:29;;;;;;;3.17;1.77;;;;;;;;;;5013399;28;20093;-37
2022/05/01 15:17:02;;;;;;;2.67;2.08;;;;;;;;;;5013269;28;20029;-37
2022/05/01 15:19:28;;;;;;;2.35;1.58;;;;;;;;;;5014660;28;20026;-37
2022/05/01 15:22:20;;;;;;;3.00;1.98;;;;;;;;;;5014721;28;20026;-37
2022/05/01 15:24:55;;;;;;;4.43;1.63;;;;;;;;;;5014490;28;20040;-37
2022/05/01 15:27:26;;;;;;;2.15;1.80;;;;;;;;;;5014253;28;20069;-37
2022/05/01 15:29:53;;;;;;;4.05;1.40;;;;;;;;;;5014372;28;20030;-37
2022/05/01 15:32:25;;;;;;;2.33;1.63;;;;;;;;;;5014291;28;20029;-37
2022/05/01 15:34:54;;;;;;;2.08;1.45;;;;;;;;;;5014243;28;20049;-37
2022/05/01 15:37:22;;;;;;;2.47;1.73;;;;;;;;;;5014284;28;20109;-37
2022/05/01 15:39:58;;;;;;;2.17;1.63;;;;;;;;;;5014471;28;20065;-37
2022/05/01 15:42:24;;;;;;;1.27;1.00;;;;;;;;;;5014103;28;20444;-37
2022/05/01 15:44:52;;;;;;;1.67;1.40;;;;;;;;;;5012842;28;20030;-37
2022/05/01 15:47:18;;;;;;;2.35;1.75;;;;;;;;;;5014371;28;20029;-37
2022/05/01 15:55:16;;;;;;;3.50;1.33;;;;;;;;;;5013861;28;20038;-37
2022/05/01 15:57:43;;;;;;;1.40;1.23;;;;;;;;;;5013890;28;20014;-37
2022/05/01 16:00:12;;;;;;;2.58;1.55;;;;;;;;;;5013866;28;20034;-37
2022/05/01 16:02:40;;;;;;;1.58;1.20;;;;;;;;;;5013763;28;20093;-37
2022/05/01 16:05:06;;;;;;;2.70;1.65;;;;;;;;;;5013837;28;20030;-37
2022/05/01 16:07:34;;;;;;;1.83;1.50;;;;;;;;;;5029352;28;20030;-37
2022/05/01 16:10:04;;;;;;;2.70;1.50;;;;;;;;;;5013554;28;20526;-38
2022/05/01 16:12:34;;;;;;;3.00;1.55;;;;;;;;;;5013519;28;20029;-37
2022/05/01 16:15:08;;;;;;;4.03;1.80;;;;;;;;;;5013487;28;20088;-37
2022/05/01 16:17:38;;;;;;;2.25;1.27;;;;;;;;;;5012329;28;20105;-37
2022/05/01 16:20:05;;;;;;;2.00;1.15;;;;;;;;;;5013199;28;20025;-37
2022/05/01 16:22:48;;;;;;;1.20;1.10;;;;;;;;;;5013392;28;20030;-37
2022/05/01 16:25:16;;;;;;;1.70;1.40;;;;;;;;;;5013319;28;20032;-37
2022/05/01 16:27:48;;;;;;;1.98;1.25;;;;;;;;;;5013182;28;20042;-37
2022/05/01 16:30:15;;;;;;;1.38;1.10;;;;;;;;;;5013225;28;20117;-37
2022/05/01 16:32:59;;;;;;;1.65;1.35;;;;;;;;;;5013382;28;20152;-37
2022/05/01 16:35:30;;;;;;;1.35;1.17;;;;;;;;;;5013122;28;20052;-37
2022/05/01 16:37:58;;;;;;;2.92;1.27;;;;;;;;;;5013050;28;20030;-37
2022/05/01 16:40:24;;;;;;;1.63;1.35;;;;;;;;;;5013326;28;20021;-37
2022/05/01 16:42:51;;;;;;;1.42;1.20;;;;;;;;;;5012087;28;20045;-37
2022/05/01 16:45:17;;;;;;;1.80;1.08;;;;;;;;;;5013037;28;20018;-37
2022/05/01 16:47:42;;;;;;;5.75;1.10;;;;;;;;;;5012905;28;20096;-37
2022/05/01 16:50:10;;;;;;;1.50;1.00;;;;;;;;;;5011821;28;20499;-37
2022/05/01 16:52:38;;;;;;;0.93;0.85;;;;;;;;;;5012746;28;20034;-37
2022/05/01 16:55:05;;;;;;;1.10;1.00;;;;;;;;;;5011656;28;20540;-37
2022/05/01 16:57:34;;;;;;;4.78;1.38;;;;;;;;;;5012762;28;20030;-37
2022/05/01 17:00:01;;;;;;;1.40;1.25;;;;;;;;;;5012606;28;20067;-37
2022/05/01 17:02:43;;;;;;;2.00;1.33;;;;;;;;;;5012791;28;20034;-37
2022/05/01 17:05:15;;;;;;;1.42;1.08;;;;;;;;;;5012696;28;20037;-37
2022/05/01 17:08:13;;;;;;;1.90;1.45;;;;;;;;;;5012516;28;20036;-37
2022/05/01 17:10:49;;;;;;;3.70;1.55;;;;;;;;;;5007816;28;20523;-37
2022/05/01 17:13:33;;;;;;;1.77;1.55;;;;;;;;;;5012423;28;20096;-37
2022/05/01 17:16:03;;;;;;;2.33;1.55;;;;;;;;;;5012362;28;20056;-38
2022/05/01 17:18:41;;;;;;;3.45;1.65;;;;;;;;;;5011213;28;20026;-37
2022/05/01 17:21:17;;;;;;;1.40;1.10;;;;;;;;;;5012329;28;20026;-37
2022/05/01 17:23:54;;;;;;;1.98;1.52;;;;;;;;;;5012610;28;20038;-37
2022/05/01 17:26:29;;;;;;;2.75;1.38;;;;;;;;;;5012178;28;20095;-37
2022/05/01 17:28:59;;;;;;;1.88;1.50;;;;;;;;;;5012176;28;20113;-37
2022/05/01 17:31:28;;;;;;;2.45;1.70;;;;;;;;;;5011721;28;20057;-37
2022/05/01 17:33:58;;;;;;;2.03;1.60;;;;;;;;;;5011990;28;20076;-37
2022/05/01 17:36:24;;;;;;;1.83;1.50;;;;;;;;;;5012125;28;20064;-37
2022/05/01 17:38:53;;;;;;;1.65;1.55;;;;;;;;;;5010809;28;20044;-37
2022/05/01 17:41:21;;;;;;;7.72;1.50;;;;;;;;;;5012015;28;20021;-37
2022/05/01 17:43:49;;;;;;;1.58;1.48;;;;;;;;;;5010965;28;20465;-37